createdAt,value
2018-08-13T00:01:31.249Z,20.70
2018-08-13T00:04:00.541Z,20.60
2018-08-13T00:06:28.866Z,20.60
2018-08-13T00:08:57.644Z,20.60
2018-08-13T00:11:26.285Z,20.60
2018-08-13T00:13:54.862Z,20.60
2018-08-13T00:16:23.494Z,20.60
2018-08-13T00:18:52.336Z,20.60
2018-08-13T00:21:22.006Z,20.60
2018-08-13T00:23:50.583Z,20.60
2018-08-13T00:26:19.433Z,20.60
2018-08-13T00:28:48.081Z,20.60
2018-08-13T00:31:16.842Z,20.60
2018-08-13T00:33:45.623Z,20.60
2018-08-13T00:36:14.366Z,20.60
2018-08-13T00:38:43.138Z,20.60
2018-08-13T00:41:12.352Z,20.60
2018-08-13T00:43:41.154Z,20.50
2018-08-13T00:46:10.114Z,20.50
2018-08-13T00:48:38.796Z,20.50
2018-08-13T00:51:07.837Z,20.50
2018-08-13T00:53:36.804Z,20.40
2018-08-13T00:56:05.678Z,20.40
2018-08-13T00:58:34.433Z,20.40
2018-08-13T01:01:03.105Z,20.30
2018-08-13T01:03:32.138Z,20.40
2018-08-13T01:06:01.017Z,20.30
2018-08-13T01:08:30.304Z,20.30
2018-08-13T01:10:58.813Z,20.30
2018-08-13T01:13:27.801Z,20.30
2018-08-13T01:15:56.578Z,20.30
2018-08-13T01:18:25.156Z,20.30
2018-08-13T01:20:53.832Z,20.30
2018-08-13T01:23:22.426Z,20.30
2018-08-13T01:25:51.149Z,20.30
2018-08-13T01:28:19.781Z,20.30
2018-08-13T01:30:49.858Z,20.30
2018-08-13T01:33:18.396Z,20.30
2018-08-13T01:35:47.060Z,20.30
2018-08-13T01:38:15.948Z,20.30
2018-08-13T01:40:44.718Z,20.30
2018-08-13T01:43:13.766Z,20.20
2018-08-13T01:45:42.504Z,20.30
2018-08-13T01:48:11.251Z,20.30
2018-08-13T01:50:40.042Z,20.20
2018-08-13T01:53:10.401Z,20.20
2018-08-13T01:55:38.833Z,20.20
2018-08-13T01:58:07.433Z,20.20
2018-08-13T02:00:36.360Z,20.20
2018-08-13T02:03:05.294Z,20.10
2018-08-13T02:06:58.126Z,20.10
2018-08-13T02:09:43.709Z,20.10
2018-08-13T02:12:12.128Z,20.10
2018-08-13T02:14:41.614Z,20.10
2018-08-13T02:17:10.395Z,20.10
2018-08-13T02:19:38.983Z,20.10
2018-08-13T02:22:07.739Z,20.10
2018-08-13T02:24:36.485Z,20.00
2018-08-13T02:27:05.319Z,20.10
2018-08-13T02:29:33.932Z,20.00
2018-08-13T02:32:02.504Z,20.10
2018-08-13T02:34:31.404Z,20.00
2018-08-13T02:37:00.115Z,20.00
2018-08-13T02:39:29.769Z,20.00
2018-08-13T02:41:58.929Z,20.10
2018-08-13T02:44:27.706Z,20.00
2018-08-13T02:46:56.417Z,20.00
2018-08-13T02:49:25.153Z,20.00
2018-08-13T02:51:53.773Z,20.00
2018-08-13T02:54:22.507Z,20.00
2018-08-13T02:56:51.157Z,20.00
2018-08-13T02:59:19.926Z,20.00
2018-08-13T03:01:48.622Z,20.00
2018-08-13T03:04:17.310Z,20.00
2018-08-13T03:06:46.404Z,20.00
2018-08-13T03:09:14.995Z,20.00
2018-08-13T03:11:43.631Z,20.00
2018-08-13T03:14:13.229Z,20.00
2018-08-13T03:16:42.132Z,19.90
2018-08-13T03:19:10.957Z,19.90
2018-08-13T03:21:39.519Z,19.90
2018-08-13T03:24:08.850Z,19.90
2018-08-13T03:26:37.960Z,19.90
2018-08-13T03:29:06.905Z,19.90
2018-08-13T03:31:36.495Z,19.90
2018-08-13T03:34:05.290Z,19.90
2018-08-13T03:36:34.029Z,19.90
2018-08-13T03:39:02.603Z,19.90
2018-08-13T03:41:31.116Z,19.90
2018-08-13T03:44:01.204Z,19.90
2018-08-13T03:46:30.561Z,19.90
2018-08-13T03:49:00.257Z,19.90
2018-08-13T03:51:29.460Z,19.90
2018-08-13T03:53:58.406Z,19.90
2018-08-13T03:56:27.017Z,19.90
2018-08-13T03:58:55.980Z,19.90
2018-08-13T04:01:24.873Z,19.80
2018-08-13T04:03:55.518Z,19.80
2018-08-13T04:06:24.456Z,19.80
2018-08-13T04:08:53.257Z,19.80
2018-08-13T04:11:22.210Z,19.80
2018-08-13T04:13:50.933Z,19.80
2018-08-13T04:16:19.728Z,19.80
2018-08-13T04:18:48.643Z,19.80
2018-08-13T04:21:17.231Z,19.80
2018-08-13T04:30:44.811Z,19.80
2018-08-13T04:33:13.935Z,19.80
2018-08-13T04:35:42.820Z,19.70
2018-08-13T04:38:11.237Z,19.80
2018-08-13T04:40:39.914Z,19.80
2018-08-13T04:43:08.773Z,19.80
2018-08-13T04:45:37.411Z,19.80
2018-08-13T04:48:06.358Z,19.80
2018-08-13T04:50:35.057Z,19.80
2018-08-13T04:53:03.667Z,19.80
2018-08-13T04:55:32.458Z,19.80
2018-08-13T04:58:01.204Z,19.80
2018-08-13T05:00:31.221Z,19.80
2018-08-13T05:03:00.799Z,19.80
2018-08-13T05:05:29.098Z,19.80
2018-08-13T05:07:57.851Z,19.80
2018-08-13T05:10:27.515Z,19.70
2018-08-13T05:12:56.432Z,19.70
2018-08-13T05:15:25.174Z,19.70
2018-08-13T05:17:53.986Z,19.70
2018-08-13T05:20:22.816Z,19.70
2018-08-13T05:22:52.149Z,19.70
2018-08-13T05:25:21.826Z,19.70
2018-08-13T05:27:50.725Z,19.70
2018-08-13T05:30:20.551Z,19.70
2018-08-13T05:32:48.996Z,19.70
2018-08-13T05:35:17.678Z,19.70
2018-08-13T05:37:46.260Z,19.70
2018-08-13T05:40:16.056Z,19.70
2018-08-13T05:42:45.635Z,19.70
2018-08-13T05:45:15.655Z,19.70
2018-08-13T05:47:45.197Z,19.70
2018-08-13T05:50:15.462Z,19.70
2018-08-13T05:52:44.807Z,19.70
2018-08-13T05:55:15.402Z,19.70
2018-08-13T05:57:44.309Z,19.80
2018-08-13T06:00:14.009Z,19.70
2018-08-13T06:02:43.666Z,19.70
2018-08-13T06:05:13.023Z,19.80
2018-08-13T06:07:42.832Z,19.80
2018-08-13T06:10:12.826Z,19.80
2018-08-13T06:12:42.924Z,19.80
2018-08-13T06:15:13.625Z,19.80
2018-08-13T06:17:42.649Z,19.80
2018-08-13T06:20:17.456Z,19.80
2018-08-13T06:22:46.485Z,19.80
2018-08-13T06:25:15.268Z,19.80
2018-08-13T06:27:45.165Z,19.80
2018-08-13T06:30:15.084Z,19.80
2018-08-13T06:32:44.172Z,19.80
2018-08-13T06:35:14.152Z,19.80
2018-08-13T06:37:44.013Z,19.80
2018-08-13T06:40:14.236Z,19.80
2018-08-13T06:42:42.771Z,19.90
2018-08-13T06:45:12.426Z,19.90
2018-08-13T06:47:41.369Z,20.00
2018-08-13T06:50:11.805Z,20.00
2018-08-13T06:52:41.406Z,20.10
2018-08-13T06:55:10.393Z,20.10
2018-08-13T06:57:39.034Z,20.10
2018-08-13T07:00:10.531Z,20.20
2018-08-13T07:02:40.192Z,20.10
2018-08-13T07:05:09.577Z,20.20
2018-08-13T07:07:38.942Z,20.30
2018-08-13T07:10:10.563Z,20.50
2018-08-13T07:12:40.022Z,20.70
2018-08-13T07:15:10.333Z,20.80
2018-08-13T07:17:40.057Z,20.90
2018-08-13T07:20:10.504Z,21.10
2018-08-13T07:22:39.053Z,21.20
2018-08-13T07:25:08.968Z,21.30
2018-08-13T07:27:37.814Z,21.40
2018-08-13T07:30:09.068Z,21.50
2018-08-13T07:32:39.223Z,21.60
2018-08-13T07:35:08.602Z,21.70
2018-08-13T07:37:38.196Z,21.80
2018-08-13T07:40:10.375Z,21.90
2018-08-13T07:42:39.140Z,22.10
2018-08-13T07:45:08.596Z,22.20
2018-08-13T07:47:37.583Z,22.20
2018-08-13T07:50:07.690Z,22.40
2018-08-13T07:52:39.087Z,22.50
2018-08-13T07:55:08.454Z,22.70
2018-08-13T07:57:40.157Z,23.00
2018-08-13T08:00:11.672Z,23.20
2018-08-13T08:02:40.252Z,23.40
2018-08-13T08:05:10.159Z,23.50
2018-08-13T08:07:40.024Z,23.60
2018-08-13T08:10:10.425Z,23.70
2018-08-13T08:12:39.734Z,23.70
2018-08-13T08:15:12.801Z,23.90
2018-08-13T08:17:41.560Z,24.00
2018-08-13T08:20:10.584Z,24.10
2018-08-13T08:22:40.110Z,24.10
2018-08-13T08:25:10.661Z,24.10
2018-08-13T08:27:40.658Z,24.20
2018-08-13T08:30:10.327Z,24.10
2018-08-13T08:32:40.701Z,24.20
2018-08-13T08:35:11.400Z,24.30
2018-08-13T08:37:40.292Z,24.30
2018-08-13T08:40:14.519Z,24.30
2018-08-13T08:42:44.781Z,24.40
2018-08-13T08:45:19.001Z,24.40
2018-08-13T08:47:47.847Z,24.40
2018-08-13T08:50:16.636Z,24.50
2018-08-13T08:52:46.201Z,24.60
2018-08-13T08:55:17.425Z,24.50
2018-08-13T08:57:46.494Z,24.60
2018-08-13T09:00:19.952Z,24.60
2018-08-13T09:02:48.513Z,24.60
2018-08-13T09:05:17.300Z,24.70
2018-08-13T09:07:46.289Z,24.80
2018-08-13T09:10:14.599Z,24.90
2018-08-13T09:12:43.637Z,25.00
2018-08-13T09:15:15.901Z,25.10
2018-08-13T09:17:57.516Z,25.10
2018-08-13T09:20:38.210Z,25.20
2018-08-13T09:23:18.686Z,25.30
2018-08-13T09:25:58.365Z,25.40
2018-08-13T09:28:38.146Z,25.40
2018-08-13T09:31:28.830Z,25.50
2018-08-13T09:34:08.944Z,25.40
2018-08-13T09:36:37.866Z,25.30
2018-08-13T09:39:07.565Z,25.30
2018-08-13T09:41:37.584Z,25.30
2018-08-13T09:44:06.109Z,25.40
2018-08-13T09:46:34.667Z,25.40
2018-08-13T09:49:03.430Z,25.40
2018-08-13T09:51:35.218Z,25.30
2018-08-13T09:54:04.051Z,25.30
2018-08-13T09:56:35.413Z,25.30
2018-08-13T09:59:06.725Z,25.40
2018-08-13T10:01:35.305Z,25.50
2018-08-13T10:04:04.060Z,25.60
2018-08-13T10:06:34.717Z,25.70
2018-08-13T10:09:04.296Z,25.90
2018-08-13T10:11:33.203Z,26.00
2018-08-13T10:14:01.980Z,26.20
2018-08-13T10:16:30.649Z,26.40
2018-08-13T10:19:00.230Z,26.50
2018-08-13T10:21:28.938Z,26.50
2018-08-13T10:23:57.590Z,26.60
2018-08-13T10:26:26.257Z,26.50
2018-08-13T10:29:00.426Z,26.50
2018-08-13T10:31:28.877Z,26.40
2018-08-13T10:33:58.192Z,26.30
2018-08-13T10:36:27.475Z,26.10
2018-08-13T10:38:56.058Z,26.00
2018-08-13T10:41:24.930Z,25.90
2018-08-13T10:43:53.731Z,25.70
2018-08-13T10:46:22.507Z,25.50
2018-08-13T10:48:51.244Z,25.40
2018-08-13T10:51:20.026Z,25.10
2018-08-13T10:53:48.768Z,24.90
2018-08-13T10:56:18.523Z,24.70
2018-08-13T10:58:48.567Z,24.40
2018-08-13T11:01:18.128Z,24.10
2018-08-13T11:03:47.976Z,23.90
2018-08-13T11:06:22.387Z,23.60
2018-08-13T11:10:14.175Z,23.50
2018-08-13T11:12:43.270Z,23.30
2018-08-13T11:15:17.498Z,23.10
2018-08-13T11:17:47.421Z,22.90
2018-08-13T11:20:17.460Z,22.80
2018-08-13T11:22:46.322Z,22.50
2018-08-13T11:25:20.609Z,22.30
2018-08-13T11:27:50.803Z,22.10
2018-08-13T11:30:20.485Z,21.90
2018-08-13T11:32:49.183Z,21.80
2018-08-13T11:35:21.142Z,21.60
2018-08-13T11:37:55.465Z,21.50
2018-08-13T11:40:39.506Z,21.30
2018-08-13T11:43:14.059Z,21.20
2018-08-13T11:45:47.789Z,21.00
2018-08-13T11:48:19.172Z,21.00
2018-08-13T11:50:59.745Z,20.80
2018-08-13T11:53:28.734Z,20.70
2018-08-13T11:55:57.987Z,20.70
2018-08-13T11:58:29.904Z,20.70
2018-08-13T12:01:01.655Z,20.60
2018-08-13T12:03:31.147Z,20.60
2018-08-13T12:06:01.005Z,20.50
2018-08-13T12:08:30.922Z,20.40
2018-08-13T12:11:02.543Z,20.30
2018-08-13T12:13:32.243Z,20.30
2018-08-13T12:16:06.613Z,20.30
2018-08-13T12:18:35.849Z,20.20
2018-08-13T12:21:04.641Z,20.10
2018-08-13T12:23:37.365Z,20.10
2018-08-13T12:26:05.985Z,20.20
2018-08-13T12:28:42.377Z,20.30
2018-08-13T12:31:11.425Z,20.40
2018-08-13T12:33:41.001Z,20.50
2018-08-13T12:36:12.824Z,20.70
2018-08-13T12:38:46.827Z,21.00
2018-08-13T12:41:24.432Z,21.30
2018-08-13T12:43:55.773Z,21.50
2018-08-13T12:46:24.504Z,21.90
2018-08-13T12:48:53.201Z,22.50
2018-08-13T12:51:23.006Z,23.00
2018-08-13T12:53:52.660Z,23.50
2018-08-13T12:56:21.579Z,23.70
2018-08-13T12:58:54.190Z,24.30
2018-08-13T13:01:25.533Z,24.60
2018-08-13T13:03:55.256Z,25.20
2018-08-13T13:06:28.434Z,25.80
2018-08-13T13:08:58.291Z,26.30
2018-08-13T13:11:30.180Z,26.90
2018-08-13T13:14:00.954Z,27.20
2018-08-13T13:16:31.635Z,27.60
2018-08-13T13:19:01.207Z,27.80
2018-08-13T13:21:31.510Z,27.80
2018-08-13T13:24:13.100Z,28.00
2018-08-13T13:26:48.246Z,27.80
2018-08-13T13:29:24.320Z,27.70
2018-08-13T13:31:54.114Z,27.70
2018-08-13T13:34:25.519Z,27.60
2018-08-13T13:37:09.573Z,27.60
2018-08-13T13:39:41.671Z,27.80
2018-08-13T13:42:17.096Z,27.60
2018-08-13T13:45:00.130Z,27.50
2018-08-13T13:47:32.188Z,27.40
2018-08-13T13:50:15.242Z,27.30
2018-08-13T13:52:58.098Z,27.30
2018-08-13T13:55:28.346Z,27.10
2018-08-13T13:58:03.005Z,26.90
2018-08-13T14:00:33.365Z,27.00
2018-08-13T14:03:10.362Z,26.90
2018-08-13T14:05:46.301Z,27.00
2018-08-13T14:08:15.355Z,27.10
2018-08-13T14:10:44.885Z,27.30
2018-08-13T14:13:15.738Z,27.20
2018-08-13T14:15:48.484Z,27.20
2018-08-13T14:18:17.394Z,27.20
2018-08-13T14:20:47.425Z,27.00
2018-08-13T14:23:18.996Z,26.80
2018-08-13T14:25:49.201Z,26.80
2018-08-13T14:28:18.261Z,26.70
2018-08-13T14:30:48.111Z,26.70
2018-08-13T14:33:17.452Z,26.60
2018-08-13T14:35:46.815Z,26.60
2018-08-13T14:38:19.240Z,26.50
2018-08-13T14:40:53.915Z,26.50
2018-08-13T14:43:28.787Z,26.30
2018-08-13T14:46:00.532Z,26.00
2018-08-13T14:48:34.392Z,25.80
2018-08-13T14:51:04.037Z,25.60
2018-08-13T14:53:32.539Z,25.50
2018-08-13T14:56:08.302Z,25.20
2018-08-13T14:58:37.462Z,25.00
2018-08-13T15:01:06.984Z,24.90
2018-08-13T15:03:36.760Z,24.90
2018-08-13T15:06:08.361Z,24.80
2018-08-13T15:08:43.646Z,24.70
2018-08-13T15:11:12.861Z,24.50
2018-08-13T15:13:44.712Z,24.30
2018-08-13T15:16:14.826Z,24.10
2018-08-13T15:18:44.200Z,24.00
2018-08-13T15:21:12.804Z,23.80
2018-08-13T15:23:42.289Z,23.60
2018-08-13T15:26:12.938Z,23.50
2018-08-13T15:28:42.505Z,23.40
2018-08-13T15:31:11.792Z,23.40
2018-08-13T15:33:42.134Z,23.40
2018-08-13T15:36:18.400Z,23.40
2018-08-13T15:38:47.526Z,23.40
2018-08-13T15:41:16.293Z,23.60
2018-08-13T15:43:46.615Z,23.70
2018-08-13T15:46:17.489Z,23.80
2018-08-13T15:48:46.450Z,24.00
2018-08-13T15:51:17.514Z,24.00
2018-08-13T15:53:45.989Z,24.00
2018-08-13T15:56:17.899Z,24.20
2018-08-13T15:58:48.162Z,24.40
2018-08-13T16:01:17.177Z,24.40
2018-08-13T16:03:45.782Z,24.40
2018-08-13T16:06:17.593Z,24.30
2018-08-13T16:08:47.932Z,24.30
2018-08-13T16:11:20.597Z,24.30
2018-08-13T16:13:49.745Z,24.50
2018-08-13T16:16:18.511Z,24.70
2018-08-13T16:18:47.407Z,24.60
2018-08-13T16:21:16.035Z,24.60
2018-08-13T16:23:47.300Z,24.40
2018-08-13T16:26:19.088Z,24.30
2018-08-13T16:28:48.688Z,24.10
2018-08-13T16:31:18.855Z,24.10
2018-08-13T16:33:52.292Z,23.90
2018-08-13T16:36:21.269Z,23.80
2018-08-13T16:38:50.693Z,23.60
2018-08-13T16:41:20.667Z,23.50
2018-08-13T16:43:49.746Z,23.30
2018-08-13T16:46:19.649Z,23.30
2018-08-13T16:48:48.316Z,23.20
2018-08-13T16:51:18.545Z,23.00
2018-08-13T16:53:47.639Z,22.80
2018-08-13T16:56:17.698Z,22.80
2018-08-13T16:58:48.897Z,22.70
2018-08-13T17:01:18.385Z,22.50
2018-08-13T17:03:46.982Z,22.20
2018-08-13T17:06:17.762Z,22.00
2018-08-13T17:08:46.558Z,21.70
2018-08-13T17:11:15.918Z,21.50
2018-08-13T17:13:47.415Z,21.40
2018-08-13T17:16:17.329Z,21.10
2018-08-13T17:18:46.208Z,20.90
2018-08-13T17:21:15.536Z,20.60
2018-08-13T17:23:45.052Z,20.50
2018-08-13T17:26:13.793Z,20.50
2018-08-13T17:28:42.814Z,20.50
2018-08-13T17:31:12.715Z,20.50
2018-08-13T17:33:43.244Z,20.50
2018-08-13T17:36:12.748Z,20.50
2018-08-13T17:38:42.299Z,20.50
2018-08-13T17:41:11.105Z,20.50
2018-08-13T17:43:42.427Z,20.50
2018-08-13T17:46:14.166Z,20.50
2018-08-13T17:48:45.865Z,20.50
2018-08-13T17:51:17.713Z,20.50
2018-08-13T17:53:49.166Z,20.50
2018-08-13T17:56:23.455Z,20.40
2018-08-13T17:58:52.763Z,20.50
2018-08-13T18:01:22.651Z,20.40
2018-08-13T18:03:54.433Z,20.40
2018-08-13T18:06:24.199Z,20.30
2018-08-13T18:08:55.316Z,20.30
2018-08-13T18:11:24.910Z,20.30
2018-08-13T18:13:54.960Z,20.30
2018-08-13T18:16:24.917Z,20.20
2018-08-13T18:18:56.578Z,20.20
2018-08-13T18:21:26.015Z,20.10
2018-08-13T18:23:54.583Z,20.10
2018-08-13T18:26:23.357Z,20.10
2018-08-13T18:28:58.733Z,20.00
2018-08-13T18:31:27.055Z,20.00
2018-08-13T18:33:56.060Z,20.00
2018-08-13T18:36:26.675Z,19.90
2018-08-13T18:38:56.749Z,19.90
2018-08-13T18:41:25.442Z,19.80
2018-08-13T18:44:10.624Z,19.80
2018-08-13T18:52:21.975Z,19.70
2018-08-13T18:54:51.228Z,19.60
2018-08-13T18:57:20.036Z,19.60
2018-08-13T18:59:48.999Z,19.50
2018-08-13T19:02:19.540Z,19.50
2018-08-13T19:04:49.566Z,19.50
2018-08-13T19:07:17.629Z,19.40
2018-08-13T19:09:46.383Z,19.40
2018-08-13T19:12:16.032Z,19.40
2018-08-13T19:14:44.802Z,19.40
2018-08-13T19:17:16.556Z,19.40
2018-08-13T19:19:45.226Z,19.40
2018-08-13T19:22:14.157Z,19.30
2018-08-13T19:24:46.512Z,19.30
2018-08-13T19:27:15.677Z,19.30
2018-08-13T19:29:45.438Z,19.30
2018-08-13T19:32:14.264Z,19.30
2018-08-13T19:34:43.089Z,19.20
2018-08-13T19:37:11.916Z,19.20
2018-08-13T19:39:52.968Z,19.20
2018-08-13T19:42:31.336Z,19.10
2018-08-13T19:44:59.612Z,19.10
2018-08-13T19:47:28.697Z,19.10
2018-08-13T19:50:03.128Z,19.10
2018-08-13T19:52:32.273Z,19.00
2018-08-13T19:55:02.447Z,19.00
2018-08-13T19:57:32.105Z,19.00
2018-08-13T20:00:01.183Z,19.00
2018-08-13T20:02:29.754Z,19.10
2018-08-13T20:04:58.733Z,19.00
2018-08-13T20:07:39.050Z,19.00
2018-08-13T20:10:20.425Z,19.10
2018-08-13T20:12:52.163Z,19.00
2018-08-13T20:15:22.039Z,19.00
2018-08-13T20:17:51.610Z,18.90
2018-08-13T20:20:23.248Z,18.90
2018-08-13T20:23:04.907Z,18.80
2018-08-13T20:25:49.253Z,18.80
2018-08-13T20:28:34.571Z,18.80
2018-08-13T20:34:03.052Z,18.70
2018-08-13T20:56:40.343Z,18.70
2018-08-13T21:02:02.245Z,18.70
2018-08-13T21:10:17.338Z,18.70
2018-08-13T21:12:53.826Z,18.70
2018-08-13T21:15:44.922Z,18.70
2018-08-13T21:18:13.997Z,18.70
2018-08-13T21:20:48.104Z,18.70
2018-08-13T21:26:14.695Z,18.70
2018-08-13T21:28:51.136Z,18.60
2018-08-13T21:31:31.190Z,18.60
2018-08-13T21:34:09.512Z,18.60
2018-08-13T21:36:44.563Z,18.60
2018-08-13T21:39:19.936Z,18.60
2018-08-13T21:42:00.373Z,18.60
2018-08-13T21:44:36.000Z,18.60
2018-08-13T21:47:10.113Z,18.60
2018-08-13T21:49:44.772Z,18.60
2018-08-13T21:52:25.515Z,18.50
2018-08-13T21:54:56.708Z,18.50
2018-08-13T21:57:25.593Z,18.50
2018-08-13T22:00:01.624Z,18.50
2018-08-13T22:02:30.008Z,18.50
2018-08-13T22:05:06.207Z,18.50
2018-08-13T22:07:50.597Z,18.50
2018-08-13T22:10:22.326Z,18.50
2018-08-13T22:12:50.836Z,18.50
2018-08-13T22:15:27.721Z,18.50
2018-08-13T22:17:58.652Z,18.50
2018-08-13T22:20:33.818Z,18.50
2018-08-13T22:23:03.193Z,18.50
2018-08-13T22:25:49.587Z,18.50
2018-08-13T22:28:18.609Z,18.40
2018-08-13T22:33:44.770Z,18.40
2018-08-13T22:36:16.343Z,18.40
2018-08-13T22:38:51.210Z,18.40
2018-08-13T22:41:20.364Z,18.50
2018-08-13T22:43:49.293Z,18.40
2018-08-13T22:46:27.527Z,18.40
2018-08-13T22:49:15.152Z,18.50
2018-08-13T22:51:55.367Z,18.50
2018-08-13T22:54:24.199Z,18.50
2018-08-13T22:56:58.239Z,18.60
2018-08-13T22:59:38.330Z,18.50
2018-08-13T23:02:10.064Z,18.60
2018-08-13T23:04:38.862Z,18.60
2018-08-13T23:07:15.276Z,18.60
2018-08-13T23:09:44.549Z,18.60
2018-08-13T23:12:18.621Z,18.60
2018-08-13T23:14:53.598Z,18.60
2018-08-13T23:17:22.514Z,18.60
2018-08-13T23:19:52.201Z,18.50
2018-08-13T23:22:32.997Z,18.40
2018-08-13T23:25:18.098Z,18.50
2018-08-13T23:27:55.320Z,18.40
2018-08-13T23:30:24.774Z,18.30
2018-08-13T23:33:01.527Z,18.30
2018-08-13T23:35:35.671Z,18.30
2018-08-13T23:38:12.509Z,18.30
2018-08-13T23:40:41.607Z,18.20
2018-08-13T23:43:15.823Z,18.20
2018-08-13T23:45:46.996Z,18.30
2018-08-13T23:48:15.648Z,18.30
2018-08-13T23:50:44.341Z,18.30
2018-08-13T23:53:13.979Z,18.30
2018-08-13T23:55:42.713Z,18.30
2018-08-13T23:58:13.330Z,18.40
